Impacts TAF Board
For situational awareness. Not to be used for flight planning purposes.
IDs:

KEWR - Newark Intl, NJ, US

Issued at 1134 UTC 16 Oct 2018
Updated at 1305 UTC 16 Oct 2018
Potential Impact None Slight Moderate High
Time<<17/14Z 17/15Z 17/16Z 17/17Z 17/18Z 17/19Z 17/20Z 17/21Z 17/22Z 17/23Z 18/00Z 18/01Z 18/02Z
Type PRVL PRVL PRVL PRVL
VIS >6 >6 >6 >6
CIG -- -- -- --
Cover FEW FEW FEW FEW
FltCat VFR VFR VFR VFR
WX -- -- -- --
WDir 260 260 260 260
WSpd 12 12 12 12
WGst 23 23 23 23
Raw TAF
KEWR 161134Z 1612/1718 31010G17KT P6SM FEW040 SCT250
  FM161600 28009KT P6SM FEW250
  FM161800 25010KT P6SM FEW250
  FM170100 25007KT P6SM SKC
  FM171400 26012G23KT P6SM FEW100


METAR Board
Radar Display
Forecast Discussion
For situational awareness. Not to be used for flight planning purposes.